sensor_id;sensor_type;location;lat;lon;timestamp;P1;durP1;ratioP1;P2;durP2;ratioP2
12888;SDS011;56848;49.896;11.424;2022-12-04T05:00:35;8.90;;;6.10;;
12888;SDS011;56848;49.896;11.424;2022-12-04T05:03:01;11.30;;;6.57;;
12888;SDS011;56848;49.896;11.424;2022-12-04T05:05:27;15.63;;;7.30;;
12888;SDS011;56848;49.896;11.424;2022-12-04T05:07:52;10.30;;;6.37;;
12888;SDS011;56848;49.896;11.424;2022-12-04T05:10:18;10.60;;;6.30;;
12888;SDS011;56848;49.896;11.424;2022-12-04T05:12:43;10.90;;;6.60;;
12888;SDS011;56848;49.896;11.424;2022-12-04T05:15:09;10.87;;;7.00;;
12888;SDS011;56848;49.896;11.424;2022-12-04T05:17:35;9.90;;;6.33;;
12888;SDS011;56848;49.896;11.424;2022-12-04T05:20:01;10.13;;;6.20;;
12888;SDS011;56848;49.896;11.424;2022-12-04T05:22:29;9.27;;;5.80;;
12888;SDS011;56848;49.896;11.424;2022-12-04T05:24:56;13.40;;;7.07;;
12888;SDS011;56848;49.896;11.424;2022-12-04T05:27:23;11.20;;;6.63;;
12888;SDS011;56848;49.896;11.424;2022-12-04T05:29:51;11.43;;;6.03;;
12888;SDS011;56848;49.896;11.424;2022-12-04T05:32:18;10.23;;;6.60;;
12888;SDS011;56848;49.896;11.424;2022-12-04T05:34:46;12.38;;;6.30;;
12888;SDS011;56848;49.896;11.424;2022-12-04T05:37:12;14.98;;;6.25;;
12888;SDS011;56848;49.896;11.424;2022-12-04T05:39:38;9.03;;;5.90;;
12888;SDS011;56848;49.896;11.424;2022-12-04T05:42:04;12.25;;;6.80;;
12888;SDS011;56848;49.896;11.424;2022-12-04T05:44:29;10.97;;;5.83;;
12888;SDS011;56848;49.896;11.424;2022-12-04T05:46:55;10.13;;;5.40;;
12888;SDS011;56848;49.896;11.424;2022-12-04T05:49:21;9.37;;;6.10;;
12888;SDS011;56848;49.896;11.424;2022-12-04T05:51:48;10.57;;;5.70;;
12888;SDS011;56848;49.896;11.424;2022-12-04T05:54:14;11.68;;;5.40;;
12888;SDS011;56848;49.896;11.424;2022-12-04T05:56:40;10.07;;;6.20;;
12888;SDS011;56848;49.896;11.424;2022-12-04T05:59:05;10.07;;;5.97;;
12888;SDS011;56848;49.896;11.424;2022-12-04T06:01:31;9.10;;;6.40;;
12888;SDS011;56848;49.896;11.424;2022-12-04T06:03:57;10.17;;;6.20;;
12888;SDS011;56848;49.896;11.424;2022-12-04T06:06:23;9.63;;;5.63;;
12888;SDS011;56848;49.896;11.424;2022-12-04T06:08:51;10.70;;;6.25;;
12888;SDS011;56848;49.896;11.424;2022-12-04T06:11:19;10.60;;;6.60;;
12888;SDS011;56848;49.896;11.424;2022-12-04T06:13:46;10.98;;;6.53;;
12888;SDS011;56848;49.896;11.424;2022-12-04T06:16:12;8.47;;;5.90;;
12888;SDS011;56848;49.896;11.424;2022-12-04T06:18:39;9.90;;;6.40;;
12888;SDS011;56848;49.896;11.424;2022-12-04T06:21:04;9.90;;;6.30;;
12888;SDS011;56848;49.896;11.424;2022-12-04T06:23:30;10.17;;;6.30;;
12888;SDS011;56848;49.896;11.424;2022-12-04T06:25:55;9.57;;;6.10;;
12888;SDS011;56848;49.896;11.424;2022-12-04T06:28:21;14.50;;;7.80;;
12888;SDS011;56848;49.896;11.424;2022-12-04T06:30:46;8.60;;;5.87;;
12888;SDS011;56848;49.896;11.424;2022-12-04T06:33:12;11.77;;;6.47;;
12888;SDS011;56848;49.896;11.424;2022-12-04T06:35:37;11.20;;;6.43;;
12888;SDS011;56848;49.896;11.424;2022-12-04T06:38:03;6.70;;;4.83;;
12888;SDS011;56848;49.896;11.424;2022-12-04T06:40:29;9.70;;;6.07;;
12888;SDS011;56848;49.896;11.424;2022-12-04T06:42:54;13.50;;;6.47;;
12888;SDS011;56848;49.896;11.424;2022-12-04T06:45:21;11.65;;;6.72;;
12888;SDS011;56848;49.896;11.424;2022-12-04T06:47:47;9.40;;;5.87;;
12888;SDS011;56848;49.896;11.424;2022-12-04T06:50:12;11.20;;;6.20;;
12888;SDS011;56848;49.896;11.424;2022-12-04T06:52:38;9.40;;;6.23;;
12888;SDS011;56848;49.896;11.424;2022-12-04T06:55:03;9.50;;;5.90;;
12888;SDS011;56848;49.896;11.424;2022-12-04T06:57:29;10.60;;;6.88;;
12888;SDS011;56848;49.896;11.424;2022-12-04T06:59:55;10.60;;;6.30;;
12888;SDS011;56848;49.896;11.424;2022-12-04T07:02:20;9.37;;;6.07;;
12888;SDS011;56848;49.896;11.424;2022-12-04T07:04:46;9.10;;;6.77;;
12888;SDS011;56848;49.896;11.424;2022-12-04T07:07:12;10.80;;;6.10;;
12888;SDS011;56848;49.896;11.424;2022-12-04T07:09:37;12.00;;;6.90;;
12888;SDS011;56848;49.896;11.424;2022-12-04T07:12:03;16.57;;;8.97;;
12888;SDS011;56848;49.896;11.424;2022-12-04T07:14:29;11.93;;;6.97;;
12888;SDS011;56848;49.896;11.424;2022-12-04T07:16:54;9.67;;;5.70;;
12888;SDS011;56848;49.896;11.424;2022-12-04T07:19:20;10.37;;;6.47;;
12888;SDS011;56848;49.896;11.424;2022-12-04T07:21:46;11.87;;;6.77;;
12888;SDS011;56848;49.896;11.424;2022-12-04T07:24:12;11.70;;;6.47;;
12888;SDS011;56848;49.896;11.424;2022-12-04T07:26:40;11.13;;;6.45;;
12888;SDS011;56848;49.896;11.424;2022-12-04T07:29:06;12.63;;;6.80;;
12888;SDS011;56848;49.896;11.424;2022-12-04T07:31:31;10.23;;;5.50;;
12888;SDS011;56848;49.896;11.424;2022-12-04T07:33:57;11.30;;;6.80;;
12888;SDS011;56848;49.896;11.424;2022-12-04T07:36:23;11.17;;;6.37;;
12888;SDS011;56848;49.896;11.424;2022-12-04T07:38:50;9.63;;;5.95;;
12888;SDS011;56848;49.896;11.424;2022-12-04T07:41:16;10.63;;;5.78;;
12888;SDS011;56848;49.896;11.424;2022-12-04T07:43:43;12.88;;;7.20;;
12888;SDS011;56848;49.896;11.424;2022-12-04T07:46:16;9.82;;;5.72;;
12888;SDS011;56848;49.896;11.424;2022-12-04T07:48:43;9.95;;;5.20;;
12888;SDS011;56848;49.896;11.424;2022-12-04T07:51:13;11.17;;;5.90;;
12888;SDS011;56848;49.896;11.424;2022-12-04T07:53:41;10.52;;;7.25;;
12888;SDS011;56848;49.896;11.424;2022-12-04T07:56:07;10.38;;;6.47;;
12888;SDS011;56848;49.896;11.424;2022-12-04T07:58:34;12.60;;;6.82;;
12888;SDS011;56848;49.896;11.424;2022-12-04T08:01:06;9.60;;;6.37;;
12888;SDS011;56848;49.896;11.424;2022-12-04T08:03:33;10.43;;;6.13;;
12888;SDS011;56848;49.896;11.424;2022-12-04T08:06:03;12.10;;;7.50;;
12888;SDS011;56848;49.896;11.424;2022-12-04T08:08:29;14.15;;;7.18;;
12888;SDS011;56848;49.896;11.424;2022-12-04T08:10:54;10.60;;;6.50;;
12888;SDS011;56848;49.896;11.424;2022-12-04T08:13:20;10.83;;;5.97;;
12888;SDS011;56848;49.896;11.424;2022-12-04T08:15:46;10.73;;;6.87;;
12888;SDS011;56848;49.896;11.424;2022-12-04T08:18:12;9.33;;;6.70;;
12888;SDS011;56848;49.896;11.424;2022-12-04T08:20:37;12.97;;;6.80;;
12888;SDS011;56848;49.896;11.424;2022-12-04T08:23:03;10.27;;;5.87;;
12888;SDS011;56848;49.896;11.424;2022-12-04T08:25:28;10.17;;;5.90;;
12888;SDS011;56848;49.896;11.424;2022-12-04T08:27:54;10.40;;;6.30;;
12888;SDS011;56848;49.896;11.424;2022-12-04T08:30:20;11.37;;;6.57;;
12888;SDS011;56848;49.896;11.424;2022-12-04T08:32:45;9.17;;;5.20;;
12888;SDS011;56848;49.896;11.424;2022-12-04T08:35:11;9.27;;;5.50;;
12888;SDS011;56848;49.896;11.424;2022-12-04T08:37:37;7.80;;;5.50;;
12888;SDS011;56848;49.896;11.424;2022-12-04T08:40:03;9.67;;;5.37;;
12888;SDS011;56848;49.896;11.424;2022-12-04T08:42:29;11.30;;;5.57;;
12888;SDS011;56848;49.896;11.424;2022-12-04T08:44:54;10.67;;;6.00;;
12888;SDS011;56848;49.896;11.424;2022-12-04T08:47:20;10.30;;;5.30;;
12888;SDS011;56848;49.896;11.424;2022-12-04T08:49:45;9.50;;;6.20;;
12888;SDS011;56848;49.896;11.424;2022-12-04T08:52:11;10.20;;;5.83;;
12888;SDS011;56848;49.896;11.424;2022-12-04T08:54:36;6.80;;;4.80;;
12888;SDS011;56848;49.896;11.424;2022-12-04T08:57:02;9.30;;;5.13;;
12888;SDS011;56848;49.896;11.424;2022-12-04T08:59:28;7.27;;;5.00;;
12888;SDS011;56848;49.896;11.424;2022-12-04T09:01:53;7.27;;;4.40;;
12888;SDS011;56848;49.896;11.424;2022-12-04T09:04:19;8.60;;;5.93;;
12888;SDS011;56848;49.896;11.424;2022-12-04T09:06:45;9.50;;;6.07;;
12888;SDS011;56848;49.896;11.424;2022-12-04T09:09:10;9.70;;;5.80;;
12888;SDS011;56848;49.896;11.424;2022-12-04T09:11:36;10.27;;;5.50;;
12888;SDS011;56848;49.896;11.424;2022-12-04T09:14:02;12.33;;;6.60;;
12888;SDS011;56848;49.896;11.424;2022-12-04T09:16:28;8.63;;;6.40;;
12888;SDS011;56848;49.896;11.424;2022-12-04T09:18:55;9.93;;;5.88;;
12888;SDS011;56848;49.896;11.424;2022-12-04T09:21:21;9.35;;;5.82;;
12888;SDS011;56848;49.896;11.424;2022-12-04T09:23:48;10.13;;;5.75;;
12888;SDS011;56848;49.896;11.424;2022-12-04T09:26:22;9.82;;;5.43;;
12888;SDS011;56848;49.896;11.424;2022-12-04T09:28:50;7.78;;;5.15;;
12888;SDS011;56848;49.896;11.424;2022-12-04T09:31:16;8.75;;;5.57;;
12888;SDS011;56848;49.896;11.424;2022-12-04T09:33:42;10.43;;;5.82;;
12888;SDS011;56848;49.896;11.424;2022-12-04T09:36:08;10.47;;;5.63;;
12888;SDS011;56848;49.896;11.424;2022-12-04T09:38:40;11.98;;;7.20;;
12888;SDS011;56848;49.896;11.424;2022-12-04T09:46:34;9.38;;;5.53;;
12888;SDS011;56848;49.896;11.424;2022-12-04T09:49:09;10.00;;;6.03;;
12888;SDS011;56848;49.896;11.424;2022-12-04T09:51:39;7.88;;;5.38;;
12888;SDS011;56848;49.896;11.424;2022-12-04T09:54:15;8.40;;;6.23;;
12888;SDS011;56848;49.896;11.424;2022-12-04T09:56:45;9.18;;;5.00;;
12888;SDS011;56848;49.896;11.424;2022-12-04T09:59:23;11.30;;;6.13;;
12888;SDS011;56848;49.896;11.424;2022-12-04T10:01:59;7.10;;;5.78;;
12888;SDS011;56848;49.896;11.424;2022-12-04T10:04:41;6.78;;;5.38;;
12888;SDS011;56848;49.896;11.424;2022-12-04T10:07:15;7.63;;;5.00;;
12888;SDS011;56848;49.896;11.424;2022-12-04T10:10:06;10.63;;;5.80;;
12888;SDS011;56848;49.896;11.424;2022-12-04T10:13:11;8.57;;;5.67;;
12888;SDS011;56848;49.896;11.424;2022-12-04T10:18:44;9.73;;;6.70;;
12888;SDS011;56848;49.896;11.424;2022-12-04T10:26:54;9.20;;;5.90;;
12888;SDS011;56848;49.896;11.424;2022-12-04T10:29:28;10.50;;;6.03;;
12888;SDS011;56848;49.896;11.424;2022-12-04T10:32:04;10.73;;;6.07;;
12888;SDS011;56848;49.896;11.424;2022-12-04T10:34:49;14.00;;;6.80;;
12888;SDS011;56848;49.896;11.424;2022-12-04T10:37:17;7.50;;;5.27;;
12888;SDS011;56848;49.896;11.424;2022-12-04T10:39:54;7.77;;;5.47;;
12888;SDS011;56848;49.896;11.424;2022-12-04T10:42:37;10.13;;;6.57;;
12888;SDS011;56848;49.896;11.424;2022-12-04T10:45:24;12.40;;;6.57;;
12888;SDS011;56848;49.896;11.424;2022-12-04T10:47:50;14.73;;;7.90;;
12888;SDS011;56848;49.896;11.424;2022-12-04T10:50:18;10.77;;;6.50;;
12888;SDS011;56848;49.896;11.424;2022-12-04T10:52:45;13.00;;;7.13;;
12888;SDS011;56848;49.896;11.424;2022-12-04T10:55:11;10.13;;;6.10;;
12888;SDS011;56848;49.896;11.424;2022-12-04T10:57:41;9.23;;;5.70;;
12888;SDS011;56848;49.896;11.424;2022-12-04T11:02:59;13.20;;;6.57;;
12888;SDS011;56848;49.896;11.424;2022-12-04T11:07:55;9.67;;;6.13;;
12888;SDS011;56848;49.896;11.424;2022-12-04T11:15:47;10.43;;;6.30;;
12888;SDS011;56848;49.896;11.424;2022-12-04T11:18:16;9.50;;;6.43;;
12888;SDS011;56848;49.896;11.424;2022-12-04T11:21:11;11.80;;;5.33;;
12888;SDS011;56848;49.896;11.424;2022-12-04T11:23:46;8.47;;;5.53;;
12888;SDS011;56848;49.896;11.424;2022-12-04T11:26:13;13.97;;;6.40;;
12888;SDS011;56848;49.896;11.424;2022-12-04T11:28:39;9.87;;;5.70;;
12888;SDS011;56848;49.896;11.424;2022-12-04T11:31:10;6.97;;;3.87;;
12888;SDS011;56848;49.896;11.424;2022-12-04T11:33:42;7.20;;;5.50;;
12888;SDS011;56848;49.896;11.424;2022-12-04T11:39:13;6.50;;;5.23;;
12888;SDS011;56848;49.896;11.424;2022-12-04T11:42:02;9.90;;;6.35;;
12888;SDS011;56848;49.896;11.424;2022-12-04T11:44:31;8.70;;;5.70;;
12888;SDS011;56848;49.896;11.424;2022-12-04T11:47:00;7.90;;;4.97;;
12888;SDS011;56848;49.896;11.424;2022-12-04T11:49:28;9.17;;;4.70;;
12888;SDS011;56848;49.896;11.424;2022-12-04T11:54:51;3.83;;;3.43;;
12888;SDS011;56848;49.896;11.424;2022-12-04T12:00:11;8.68;;;5.40;;
12888;SDS011;56848;49.896;11.424;2022-12-04T12:08:04;6.43;;;4.43;;
12888;SDS011;56848;49.896;11.424;2022-12-04T12:16:05;11.80;;;6.07;;
12888;SDS011;56848;49.896;11.424;2022-12-04T12:21:24;8.90;;;5.90;;
12888;SDS011;56848;49.896;11.424;2022-12-04T12:24:06;10.77;;;5.40;;
12888;SDS011;56848;49.896;11.424;2022-12-04T12:29:24;8.97;;;6.40;;
12888;SDS011;56848;49.896;11.424;2022-12-04T12:34:56;9.23;;;5.60;;
12888;SDS011;56848;49.896;11.424;2022-12-04T12:40:28;9.50;;;6.03;;
12888;SDS011;56848;49.896;11.424;2022-12-04T12:43:06;8.60;;;6.10;;
12888;SDS011;56848;49.896;11.424;2022-12-04T12:48:18;9.80;;;6.30;;
12888;SDS011;56848;49.896;11.424;2022-12-04T12:53:43;8.97;;;6.43;;
12888;SDS011;56848;49.896;11.424;2022-12-04T12:56:15;8.07;;;6.50;;
12888;SDS011;56848;49.896;11.424;2022-12-04T12:58:43;11.53;;;7.00;;
12888;SDS011;56848;49.896;11.424;2022-12-04T13:01:23;10.90;;;6.80;;
12888;SDS011;56848;49.896;11.424;2022-12-04T13:06:37;9.20;;;5.70;;
12888;SDS011;56848;49.896;11.424;2022-12-04T13:09:25;9.40;;;5.93;;
12888;SDS011;56848;49.896;11.424;2022-12-04T13:12:14;8.43;;;5.67;;
12888;SDS011;56848;49.896;11.424;2022-12-04T13:14:42;10.20;;;6.50;;
12888;SDS011;56848;49.896;11.424;2022-12-04T13:17:14;13.60;;;6.20;;
12888;SDS011;56848;49.896;11.424;2022-12-04T13:19:48;14.07;;;7.10;;
12888;SDS011;56848;49.896;11.424;2022-12-04T13:22:34;12.20;;;6.97;;
12888;SDS011;56848;49.896;11.424;2022-12-04T13:33:38;10.07;;;5.90;;
12888;SDS011;56848;49.896;11.424;2022-12-04T13:36:28;8.37;;;5.27;;
12888;SDS011;56848;49.896;11.424;2022-12-04T13:39:07;9.87;;;5.67;;
12888;SDS011;56848;49.896;11.424;2022-12-04T13:41:43;8.37;;;5.90;;
12888;SDS011;56848;49.896;11.424;2022-12-04T13:44:12;17.80;;;7.60;;
12888;SDS011;56848;49.896;11.424;2022-12-04T13:49:31;11.23;;;6.90;;
12888;SDS011;56848;49.896;11.424;2022-12-04T13:52:00;11.17;;;6.33;;
12888;SDS011;56848;49.896;11.424;2022-12-04T13:54:43;10.87;;;6.70;;
12888;SDS011;56848;49.896;11.424;2022-12-04T13:57:23;9.73;;;6.30;;
12888;SDS011;56848;49.896;11.424;2022-12-04T13:59:59;9.90;;;6.40;;
12888;SDS011;56848;49.896;11.424;2022-12-04T14:02:30;14.87;;;8.53;;
12888;SDS011;56848;49.896;11.424;2022-12-04T14:05:06;10.40;;;6.33;;
12888;SDS011;56848;49.896;11.424;2022-12-04T14:07:34;10.03;;;6.57;;
12888;SDS011;56848;49.896;11.424;2022-12-04T14:12:41;9.33;;;6.23;;
12888;SDS011;56848;49.896;11.424;2022-12-04T14:15:20;9.90;;;6.33;;
12888;SDS011;56848;49.896;11.424;2022-12-04T14:18:27;10.27;;;5.97;;
12888;SDS011;56848;49.896;11.424;2022-12-04T14:20:57;11.10;;;6.83;;
12888;SDS011;56848;49.896;11.424;2022-12-04T14:23:37;8.90;;;6.90;;
12888;SDS011;56848;49.896;11.424;2022-12-04T14:26:05;11.70;;;6.80;;
12888;SDS011;56848;49.896;11.424;2022-12-04T14:29:56;10.50;;;6.50;;
12888;SDS011;56848;49.896;11.424;2022-12-04T14:31:57;11.40;;;7.10;;
12888;SDS011;56848;49.896;11.424;2022-12-04T14:34:28;11.67;;;7.50;;
12888;SDS011;56848;49.896;11.424;2022-12-04T14:36:58;11.90;;;6.70;;
12888;SDS011;56848;49.896;11.424;2022-12-04T14:39:26;15.97;;;8.70;;
12888;SDS011;56848;49.896;11.424;2022-12-04T14:44:53;14.23;;;8.03;;
12888;SDS011;56848;49.896;11.424;2022-12-04T14:47:28;16.13;;;9.40;;
12888;SDS011;56848;49.896;11.424;2022-12-04T14:52:59;13.60;;;7.93;;
12888;SDS011;56848;49.896;11.424;2022-12-04T14:58:28;11.60;;;7.80;;
12888;SDS011;56848;49.896;11.424;2022-12-04T15:03:44;16.40;;;9.63;;
12888;SDS011;56848;49.896;11.424;2022-12-04T15:06:25;15.60;;;8.63;;
12888;SDS011;56848;49.896;11.424;2022-12-04T15:08:55;15.82;;;8.32;;
12888;SDS011;56848;49.896;11.424;2022-12-04T15:11:45;16.55;;;9.18;;
12888;SDS011;56848;49.896;11.424;2022-12-04T15:14:42;14.80;;;8.83;;
12888;SDS011;56848;49.896;11.424;2022-12-04T15:17:12;13.50;;;8.38;;
12888;SDS011;56848;49.896;11.424;2022-12-04T15:19:40;15.83;;;8.33;;
12888;SDS011;56848;49.896;11.424;2022-12-04T15:22:20;11.65;;;7.57;;
12888;SDS011;56848;49.896;11.424;2022-12-04T15:24:47;17.63;;;9.10;;
12888;SDS011;56848;49.896;11.424;2022-12-04T15:27:14;18.03;;;9.20;;
12888;SDS011;56848;49.896;11.424;2022-12-04T15:29:43;19.52;;;10.05;;
12888;SDS011;56848;49.896;11.424;2022-12-04T15:32:12;17.40;;;9.53;;
12888;SDS011;56848;49.896;11.424;2022-12-04T15:34:41;17.92;;;8.77;;
12888;SDS011;56848;49.896;11.424;2022-12-04T15:37:16;16.30;;;9.38;;
12888;SDS011;56848;49.896;11.424;2022-12-04T15:39:46;14.43;;;7.80;;
12888;SDS011;56848;49.896;11.424;2022-12-04T15:42:16;14.25;;;8.68;;
12888;SDS011;56848;49.896;11.424;2022-12-04T15:44:53;13.85;;;9.05;;
12888;SDS011;56848;49.896;11.424;2022-12-04T15:48:11;15.85;;;8.60;;
12888;SDS011;56848;49.896;11.424;2022-12-04T15:53:00;14.48;;;8.43;;
12888;SDS011;56848;49.896;11.424;2022-12-04T15:55:30;13.18;;;8.32;;
12888;SDS011;56848;49.896;11.424;2022-12-04T15:58:04;15.98;;;7.88;;
12888;SDS011;56848;49.896;11.424;2022-12-04T16:00:40;15.27;;;8.80;;
12888;SDS011;56848;49.896;11.424;2022-12-04T16:03:24;12.40;;;8.00;;
12888;SDS011;56848;49.896;11.424;2022-12-04T16:06:03;12.52;;;7.85;;
12888;SDS011;56848;49.896;11.424;2022-12-04T16:08:49;13.55;;;8.13;;
12888;SDS011;56848;49.896;11.424;2022-12-04T16:11:27;14.63;;;8.52;;
12888;SDS011;56848;49.896;11.424;2022-12-04T16:14:16;15.23;;;8.13;;
12888;SDS011;56848;49.896;11.424;2022-12-04T16:16:44;12.90;;;8.23;;
12888;SDS011;56848;49.896;11.424;2022-12-04T16:19:24;14.97;;;8.67;;
12888;SDS011;56848;49.896;11.424;2022-12-04T16:21:58;17.20;;;9.10;;
12888;SDS011;56848;49.896;11.424;2022-12-04T16:24:25;14.82;;;8.75;;
12888;SDS011;56848;49.896;11.424;2022-12-04T16:26:52;18.17;;;8.97;;
12888;SDS011;56848;49.896;11.424;2022-12-04T16:29:19;13.55;;;7.47;;
12888;SDS011;56848;49.896;11.424;2022-12-04T16:31:45;15.00;;;8.13;;
12888;SDS011;56848;49.896;11.424;2022-12-04T16:34:11;14.20;;;8.33;;
12888;SDS011;56848;49.896;11.424;2022-12-04T16:36:37;15.48;;;8.88;;
12888;SDS011;56848;49.896;11.424;2022-12-04T16:39:03;16.80;;;10.00;;
12888;SDS011;56848;49.896;11.424;2022-12-04T16:41:29;56.53;;;21.80;;
12888;SDS011;56848;49.896;11.424;2022-12-04T16:43:56;38.87;;;19.70;;
12888;SDS011;56848;49.896;11.424;2022-12-04T16:46:24;47.00;;;14.60;;
12888;SDS011;56848;49.896;11.424;2022-12-04T16:48:50;37.35;;;14.52;;
12888;SDS011;56848;49.896;11.424;2022-12-04T16:51:18;19.93;;;11.40;;
12888;SDS011;56848;49.896;11.424;2022-12-04T16:53:46;34.77;;;16.90;;
12888;SDS011;56848;49.896;11.424;2022-12-04T16:56:12;26.17;;;13.80;;
12888;SDS011;56848;49.896;11.424;2022-12-04T16:58:37;22.57;;;11.73;;
12888;SDS011;56848;49.896;11.424;2022-12-04T17:01:03;19.47;;;10.70;;
12888;SDS011;56848;49.896;11.424;2022-12-04T17:03:36;17.60;;;10.82;;
12888;SDS011;56848;49.896;11.424;2022-12-04T17:06:01;20.57;;;10.57;;
12888;SDS011;56848;49.896;11.424;2022-12-04T17:08:27;17.50;;;10.20;;
12888;SDS011;56848;49.896;11.424;2022-12-04T17:10:53;20.13;;;11.33;;
12888;SDS011;56848;49.896;11.424;2022-12-04T17:13:19;19.97;;;10.10;;
12888;SDS011;56848;49.896;11.424;2022-12-04T17:15:46;20.35;;;11.10;;
12888;SDS011;56848;49.896;11.424;2022-12-04T17:18:12;25.50;;;12.83;;
12888;SDS011;56848;49.896;11.424;2022-12-04T17:20:41;22.08;;;12.63;;
12888;SDS011;56848;49.896;11.424;2022-12-04T17:23:08;22.55;;;11.80;;
12888;SDS011;56848;49.896;11.424;2022-12-04T17:25:34;17.67;;;10.13;;
12888;SDS011;56848;49.896;11.424;2022-12-04T17:28:00;19.97;;;10.53;;
12888;SDS011;56848;49.896;11.424;2022-12-04T17:30:26;19.47;;;10.50;;
12888;SDS011;56848;49.896;11.424;2022-12-04T17:32:51;18.27;;;9.73;;
12888;SDS011;56848;49.896;11.424;2022-12-04T17:35:17;19.53;;;11.00;;
12888;SDS011;56848;49.896;11.424;2022-12-04T17:37:42;21.07;;;11.20;;
12888;SDS011;56848;49.896;11.424;2022-12-04T17:40:08;15.10;;;10.13;;
12888;SDS011;56848;49.896;11.424;2022-12-04T17:42:35;16.23;;;9.18;;
12888;SDS011;56848;49.896;11.424;2022-12-04T17:45:01;17.50;;;10.47;;
12888;SDS011;56848;49.896;11.424;2022-12-04T17:47:26;15.50;;;8.77;;
12888;SDS011;56848;49.896;11.424;2022-12-04T17:49:52;21.07;;;10.53;;
12888;SDS011;56848;49.896;11.424;2022-12-04T17:52:18;18.23;;;9.87;;
12888;SDS011;56848;49.896;11.424;2022-12-04T17:54:46;18.23;;;9.80;;
12888;SDS011;56848;49.896;11.424;2022-12-04T17:57:13;20.53;;;11.53;;
12888;SDS011;56848;49.896;11.424;2022-12-04T17:59:40;18.92;;;10.57;;
12888;SDS011;56848;49.896;11.424;2022-12-04T18:02:07;18.43;;;10.57;;
12888;SDS011;56848;49.896;11.424;2022-12-04T18:04:33;19.30;;;10.73;;
12888;SDS011;56848;49.896;11.424;2022-12-04T18:06:59;19.07;;;10.20;;
12888;SDS011;56848;49.896;11.424;2022-12-04T18:09:25;22.87;;;11.57;;
12888;SDS011;56848;49.896;11.424;2022-12-04T18:11:50;25.40;;;11.10;;
12888;SDS011;56848;49.896;11.424;2022-12-04T18:14:17;16.77;;;10.30;;
12888;SDS011;56848;49.896;11.424;2022-12-04T18:16:47;16.70;;;10.60;;
12888;SDS011;56848;49.896;11.424;2022-12-04T18:19:18;15.47;;;10.23;;
12888;SDS011;56848;49.896;11.424;2022-12-04T18:21:45;16.43;;;9.60;;
12888;SDS011;56848;49.896;11.424;2022-12-04T18:24:11;18.63;;;10.27;;
12888;SDS011;56848;49.896;11.424;2022-12-04T18:26:37;18.80;;;10.23;;
12888;SDS011;56848;49.896;11.424;2022-12-04T18:29:04;17.10;;;10.70;;
12888;SDS011;56848;49.896;11.424;2022-12-04T18:31:30;17.00;;;9.87;;
12888;SDS011;56848;49.896;11.424;2022-12-04T18:33:56;14.80;;;9.30;;
12888;SDS011;56848;49.896;11.424;2022-12-04T18:36:23;19.93;;;11.70;;
12888;SDS011;56848;49.896;11.424;2022-12-04T18:38:54;19.67;;;12.50;;
12888;SDS011;56848;49.896;11.424;2022-12-04T18:41:22;21.60;;;12.10;;
12888;SDS011;56848;49.896;11.424;2022-12-04T18:43:48;26.00;;;15.93;;
12888;SDS011;56848;49.896;11.424;2022-12-04T18:46:14;28.80;;;16.43;;
12888;SDS011;56848;49.896;11.424;2022-12-04T18:48:41;24.40;;;12.50;;
12888;SDS011;56848;49.896;11.424;2022-12-04T18:53:51;19.10;;;10.87;;
12888;SDS011;56848;49.896;11.424;2022-12-04T18:56:19;20.30;;;10.43;;
12888;SDS011;56848;49.896;11.424;2022-12-04T18:58:45;21.10;;;10.20;;
12888;SDS011;56848;49.896;11.424;2022-12-04T19:01:13;18.37;;;9.93;;
12888;SDS011;56848;49.896;11.424;2022-12-04T19:03:42;19.47;;;11.10;;
12888;SDS011;56848;49.896;11.424;2022-12-04T19:06:08;24.57;;;13.53;;
12888;SDS011;56848;49.896;11.424;2022-12-04T19:08:34;20.90;;;12.00;;
12888;SDS011;56848;49.896;11.424;2022-12-04T19:13:32;26.40;;;13.60;;
12888;SDS011;56848;49.896;11.424;2022-12-04T19:15:58;23.07;;;12.53;;
12888;SDS011;56848;49.896;11.424;2022-12-04T19:18:23;22.20;;;12.90;;
12888;SDS011;56848;49.896;11.424;2022-12-04T19:20:49;23.23;;;13.10;;
12888;SDS011;56848;49.896;11.424;2022-12-04T19:23:15;26.27;;;14.87;;
12888;SDS011;56848;49.896;11.424;2022-12-04T19:25:40;34.60;;;12.30;;
12888;SDS011;56848;49.896;11.424;2022-12-04T19:28:06;25.20;;;13.47;;
12888;SDS011;56848;49.896;11.424;2022-12-04T19:30:32;22.57;;;12.13;;
12888;SDS011;56848;49.896;11.424;2022-12-04T19:32:58;24.67;;;12.57;;
12888;SDS011;56848;49.896;11.424;2022-12-04T19:35:24;23.37;;;12.83;;
12888;SDS011;56848;49.896;11.424;2022-12-04T19:37:50;27.13;;;14.03;;
12888;SDS011;56848;49.896;11.424;2022-12-04T19:40:16;24.77;;;13.30;;
12888;SDS011;56848;49.896;11.424;2022-12-04T19:42:42;23.00;;;13.77;;
12888;SDS011;56848;49.896;11.424;2022-12-04T19:45:08;23.00;;;14.17;;
12888;SDS011;56848;49.896;11.424;2022-12-04T19:47:33;24.27;;;13.10;;
12888;SDS011;56848;49.896;11.424;2022-12-04T19:49:59;26.93;;;14.57;;
12888;SDS011;56848;49.896;11.424;2022-12-04T19:52:24;30.00;;;14.10;;
12888;SDS011;56848;49.896;11.424;2022-12-04T19:54:50;21.40;;;13.20;;
12888;SDS011;56848;49.896;11.424;2022-12-04T19:57:16;25.00;;;14.80;;
12888;SDS011;56848;49.896;11.424;2022-12-04T19:59:41;26.77;;;13.37;;
12888;SDS011;56848;49.896;11.424;2022-12-04T20:02:08;25.20;;;13.63;;
12888;SDS011;56848;49.896;11.424;2022-12-04T20:04:36;25.40;;;13.43;;
12888;SDS011;56848;49.896;11.424;2022-12-04T20:07:03;31.10;;;14.70;;
12888;SDS011;56848;49.896;11.424;2022-12-04T20:09:29;27.70;;;13.60;;
12888;SDS011;56848;49.896;11.424;2022-12-04T20:11:55;25.80;;;12.40;;
12888;SDS011;56848;49.896;11.424;2022-12-04T20:14:21;25.07;;;14.60;;
12888;SDS011;56848;49.896;11.424;2022-12-04T20:16:48;25.13;;;14.27;;
12888;SDS011;56848;49.896;11.424;2022-12-04T20:19:15;29.23;;;14.70;;
12888;SDS011;56848;49.896;11.424;2022-12-04T20:21:42;28.43;;;14.77;;
12888;SDS011;56848;49.896;11.424;2022-12-04T20:24:09;28.40;;;14.63;;
12888;SDS011;56848;49.896;11.424;2022-12-04T20:26:37;28.30;;;14.50;;
12888;SDS011;56848;49.896;11.424;2022-12-04T20:29:05;31.33;;;14.80;;
12888;SDS011;56848;49.896;11.424;2022-12-04T20:31:33;31.50;;;16.13;;
12888;SDS011;56848;49.896;11.424;2022-12-04T20:34:01;27.80;;;15.43;;
12888;SDS011;56848;49.896;11.424;2022-12-04T20:36:29;31.43;;;16.13;;
12888;SDS011;56848;49.896;11.424;2022-12-04T20:38:58;28.00;;;15.00;;
12888;SDS011;56848;49.896;11.424;2022-12-04T20:41:25;30.80;;;16.30;;
12888;SDS011;56848;49.896;11.424;2022-12-04T20:43:51;30.37;;;15.43;;
12888;SDS011;56848;49.896;11.424;2022-12-04T20:46:19;29.73;;;14.90;;
12888;SDS011;56848;49.896;11.424;2022-12-04T20:48:49;33.20;;;15.80;;
12888;SDS011;56848;49.896;11.424;2022-12-04T20:51:18;32.43;;;16.17;;
12888;SDS011;56848;49.896;11.424;2022-12-04T20:53:48;30.40;;;16.17;;
12888;SDS011;56848;49.896;11.424;2022-12-04T20:56:14;30.00;;;16.03;;
12888;SDS011;56848;49.896;11.424;2022-12-04T20:58:41;33.60;;;16.60;;
12888;SDS011;56848;49.896;11.424;2022-12-04T21:01:11;37.53;;;17.80;;
12888;SDS011;56848;49.896;11.424;2022-12-04T21:03:38;32.53;;;16.67;;
12888;SDS011;56848;49.896;11.424;2022-12-04T21:06:06;34.73;;;17.37;;
12888;SDS011;56848;49.896;11.424;2022-12-04T21:08:39;35.07;;;16.57;;
12888;SDS011;56848;49.896;11.424;2022-12-04T21:11:17;40.57;;;17.93;;